Time;durP1;ratioP1;P1;durP2;ratioP2;P2;SDS_P1;SDS_P2;PMS_P1;PMS_P2;Temp;Humidity;BMP_temperature;BMP_pressure;BME280_temperature;BME280_humidity;BME280_pressure;Samples;Min_cycle;Max_cycle;Signal;HPM_P1;HPM_P2
2021/04/03 00:02:03;;;;;;;34.53;8.43;;;;;;;;;;5049324;28;20071;-67
2021/04/03 00:04:28;;;;;;;29.35;8.10;;;;;;;;;;5049899;28;20385;-67
2021/04/03 00:06:53;;;;;;;27.88;6.60;;;;;;;;;;5050318;28;20060;-67
2021/04/03 00:09:18;;;;;;;20.92;6.95;;;;;;;;;;5049477;28;20485;-67
2021/04/03 00:11:43;;;;;;;24.25;7.15;;;;;;;;;;5049405;28;20021;-68
2021/04/03 00:14:08;;;;;;;41.10;7.53;;;;;;;;;;5050208;28;20037;-68
2021/04/03 00:16:34;;;;;;;31.33;6.10;;;;;;;;;;5051585;28;20020;-67
2021/04/03 00:18:59;;;;;;;19.00;5.57;;;;;;;;;;5046604;28;20095;-68
2021/04/03 00:21:24;;;;;;;22.47;5.17;;;;;;;;;;5038899;28;20021;-67
2021/04/03 00:23:49;;;;;;;22.55;5.13;;;;;;;;;;5050922;28;20266;-67
2021/04/03 00:26:15;;;;;;;21.25;4.97;;;;;;;;;;5050593;28;20449;-67
2021/04/03 00:28:43;;;;;;;22.67;5.63;;;;;;;;;;5103708;22;20048;-90
2021/04/03 00:31:15;;;;;;;27.67;5.30;;;;;;;;;;5070829;28;20020;-89
2021/04/03 00:33:40;;;;;;;20.90;5.75;;;;;;;;;;5085031;28;20017;-88
2021/04/03 00:36:06;;;;;;;16.63;4.28;;;;;;;;;;5064333;28;20140;-88
2021/04/03 00:38:31;;;;;;;19.73;4.75;;;;;;;;;;5065090;28;20104;-89
2021/04/03 00:41:00;;;;;;;26.23;5.25;;;;;;;;;;5073678;28;20027;-89
2021/04/03 00:43:27;;;;;;;20.33;4.85;;;;;;;;;;5076836;28;20001;-88
2021/04/03 00:45:53;;;;;;;24.50;4.95;;;;;;;;;;5071127;28;20017;-90
2021/04/03 00:48:26;;;;;;;24.33;4.78;;;;;;;;;;5056450;28;20174;-90
2021/04/03 00:50:52;;;;;;;29.45;5.78;;;;;;;;;;5043897;28;20489;-89
2021/04/03 00:53:20;;;;;;;18.63;5.15;;;;;;;;;;5050934;28;20539;-90
2021/04/03 00:55:48;;;;;;;25.05;5.57;;;;;;;;;;5060029;28;20017;-89
2021/04/03 00:58:15;;;;;;;38.72;5.82;;;;;;;;;;5065869;28;20047;-90
2021/04/03 01:00:43;;;;;;;26.83;5.65;;;;;;;;;;5052660;28;20013;-89
2021/04/03 01:03:11;;;;;;;23.13;5.25;;;;;;;;;;5035660;28;20023;-89
2021/04/03 01:05:36;;;;;;;21.25;5.05;;;;;;;;;;5071307;28;20016;-89
2021/04/03 01:08:02;;;;;;;30.27;5.75;;;;;;;;;;5060802;28;20155;-89
2021/04/03 01:10:30;;;;;;;26.85;5.70;;;;;;;;;;5051576;28;20031;-90
2021/04/03 01:12:58;;;;;;;34.63;5.20;;;;;;;;;;5045303;28;20017;-90
2021/04/03 01:15:28;;;;;;;37.08;6.20;;;;;;;;;;5063622;28;20511;-89
2021/04/03 01:17:58;;;;;;;31.40;5.97;;;;;;;;;;5043019;28;20056;-90
2021/04/03 01:20:42;;;;;;;29.73;5.65;;;;;;;;;;5038812;28;20029;-89
2021/04/03 01:23:11;;;;;;;36.40;5.68;;;;;;;;;;5051242;28;20526;-88
2021/04/03 01:25:45;;;;;;;36.10;6.55;;;;;;;;;;5039639;28;20029;-90
2021/04/03 01:28:17;;;;;;;33.40;6.13;;;;;;;;;;5051718;28;20029;-88
2021/04/03 01:30:45;;;;;;;39.75;7.68;;;;;;;;;;5054456;28;20025;-88
2021/04/03 01:33:11;;;;;;;32.95;5.25;;;;;;;;;;5060195;28;20032;-90
2021/04/03 01:35:40;;;;;;;39.55;7.18;;;;;;;;;;5075958;28;20033;-89
2021/04/03 01:38:10;;;;;;;29.77;5.90;;;;;;;;;;5047723;28;20650;-89
2021/04/03 01:40:38;;;;;;;32.22;5.72;;;;;;;;;;5072788;28;20012;-90
2021/04/03 01:43:05;;;;;;;27.20;6.40;;;;;;;;;;5060287;28;20024;-90
2021/04/03 01:45:32;;;;;;;29.33;5.97;;;;;;;;;;5050957;28;20030;-89
2021/04/03 01:47:58;;;;;;;28.42;6.95;;;;;;;;;;5053027;28;20479;-90
2021/04/03 01:50:29;;;;;;;41.35;7.18;;;;;;;;;;5042503;28;20123;-89
2021/04/03 01:52:57;;;;;;;41.00;6.65;;;;;;;;;;5048036;28;20498;-88
2021/04/03 01:55:24;;;;;;;36.80;6.28;;;;;;;;;;5058877;28;20115;-89
2021/04/03 01:57:50;;;;;;;27.08;5.28;;;;;;;;;;5049814;28;20035;-89
2021/04/03 02:00:22;;;;;;;34.72;6.97;;;;;;;;;;5054101;28;20024;-89
2021/04/03 02:02:48;;;;;;;30.35;6.05;;;;;;;;;;5081946;28;20096;-89
2021/04/03 02:05:14;;;;;;;29.85;6.32;;;;;;;;;;5083600;28;20518;-89
2021/04/03 02:07:41;;;;;;;39.10;6.55;;;;;;;;;;5050381;28;20017;-88
2021/04/03 02:10:07;;;;;;;21.58;5.30;;;;;;;;;;5065853;28;20024;-91
2021/04/03 02:12:35;;;;;;;32.42;6.00;;;;;;;;;;5038232;28;20021;-88
2021/04/03 02:15:01;;;;;;;22.13;5.65;;;;;;;;;;5068253;28;20036;-89
2021/04/03 02:17:28;;;;;;;19.65;4.95;;;;;;;;;;5038856;28;20021;-90
2021/04/03 02:19:53;;;;;;;28.60;6.28;;;;;;;;;;5036730;28;20053;-88
2021/04/03 02:22:19;;;;;;;31.25;6.53;;;;;;;;;;5039756;28;20041;-89
2021/04/03 02:24:45;;;;;;;26.55;4.68;;;;;;;;;;5037505;28;20020;-88
2021/04/03 02:27:11;;;;;;;23.92;5.40;;;;;;;;;;5037720;28;20112;-90
2021/04/03 02:29:47;;;;;;;28.60;5.25;;;;;;;;;;5057048;28;20025;-89
2021/04/03 02:32:12;;;;;;;20.83;4.25;;;;;;;;;;5068768;28;20021;-88
2021/04/03 02:34:38;;;;;;;21.08;3.55;;;;;;;;;;5043609;28;20090;-90
2021/04/03 02:37:06;;;;;;;23.30;3.65;;;;;;;;;;5047705;28;20033;-90
2021/04/03 02:39:32;;;;;;;18.10;3.88;;;;;;;;;;5044438;28;20403;-90
2021/04/03 02:42:05;;;;;;;24.15;4.05;;;;;;;;;;5061467;28;20025;-90
2021/04/03 02:44:33;;;;;;;20.83;3.42;;;;;;;;;;5061054;28;20057;-91
2021/04/03 02:47:03;;;;;;;22.30;3.50;;;;;;;;;;5072051;28;20077;-91
2021/04/03 02:49:34;;;;;;;24.45;5.07;;;;;;;;;;5053244;28;20162;-90
2021/04/03 02:52:00;;;;;;;14.35;3.35;;;;;;;;;;5061331;28;20071;-89
2021/04/03 02:54:28;;;;;;;17.55;3.45;;;;;;;;;;5042600;28;20074;-90
2021/04/03 02:56:54;;;;;;;23.33;3.38;;;;;;;;;;5054821;28;20023;-91
2021/04/03 02:59:22;;;;;;;29.60;3.90;;;;;;;;;;5058715;28;20028;-90
2021/04/03 03:01:48;;;;;;;21.65;3.75;;;;;;;;;;5070430;28;20027;-89
2021/04/03 03:04:17;;;;;;;14.27;3.90;;;;;;;;;;5062608;28;20122;-90
2021/04/03 03:06:44;;;;;;;24.88;3.90;;;;;;;;;;5061206;28;20088;-88
2021/04/03 03:09:09;;;;;;;21.77;3.35;;;;;;;;;;5069546;28;20020;-91
2021/04/03 03:11:37;;;;;;;34.28;3.97;;;;;;;;;;5050394;28;20025;-90
2021/04/03 03:14:03;;;;;;;19.08;3.70;;;;;;;;;;5044481;28;20029;-90
2021/04/03 03:16:29;;;;;;;26.90;4.20;;;;;;;;;;5063889;28;20040;-90
2021/04/03 03:18:54;;;;;;;24.83;3.58;;;;;;;;;;5060897;28;20021;-90
2021/04/03 03:21:20;;;;;;;20.48;4.05;;;;;;;;;;5049334;28;20032;-90
2021/04/03 03:23:48;;;;;;;25.77;3.75;;;;;;;;;;5072894;28;20023;-90
2021/04/03 03:26:13;;;;;;;23.63;4.00;;;;;;;;;;5046485;28;20051;-90
2021/04/03 03:29:10;;;;;;;24.10;4.07;;;;;;;;;;5049982;28;20028;-90
2021/04/03 03:31:40;;;;;;;33.42;3.92;;;;;;;;;;5033067;28;20029;-90
2021/04/03 03:34:20;;;;;;;27.83;4.10;;;;;;;;;;5042618;28;20051;-90
2021/04/03 03:36:46;;;;;;;25.17;4.53;;;;;;;;;;5047860;28;20039;-91
2021/04/03 03:39:11;;;;;;;30.60;3.90;;;;;;;;;;5062587;28;20131;-90
2021/04/03 03:41:37;;;;;;;20.25;4.63;;;;;;;;;;5052429;28;20024;-89
2021/04/03 03:44:03;;;;;;;23.77;4.30;;;;;;;;;;5051112;28;20172;-91
2021/04/03 03:46:28;;;;;;;33.92;4.22;;;;;;;;;;5034055;28;20021;-90
2021/04/03 03:48:53;;;;;;;27.52;4.28;;;;;;;;;;5050409;28;20107;-90
2021/04/03 03:51:19;;;;;;;17.23;4.13;;;;;;;;;;5040896;28;20028;-90
2021/04/03 03:53:47;;;;;;;23.70;3.67;;;;;;;;;;5059742;28;20082;-90
2021/04/03 03:56:14;;;;;;;34.58;5.15;;;;;;;;;;5055815;28;20086;-90
2021/04/03 03:58:39;;;;;;;19.65;3.70;;;;;;;;;;5070259;28;20017;-90
2021/04/03 04:01:04;;;;;;;21.23;4.63;;;;;;;;;;5032223;28;20039;-91
2021/04/03 04:03:30;;;;;;;35.20;5.95;;;;;;;;;;5033882;28;20107;-90
2021/04/03 04:05:55;;;;;;;25.70;4.18;;;;;;;;;;5038197;28;20121;-91
2021/04/03 04:08:21;;;;;;;31.35;6.90;;;;;;;;;;5053776;28;20107;-90
2021/04/03 04:10:46;;;;;;;30.75;4.35;;;;;;;;;;5042822;28;20052;-90
2021/04/03 04:13:11;;;;;;;36.25;4.78;;;;;;;;;;5082864;28;20024;-90
2021/04/03 04:15:37;;;;;;;25.20;4.85;;;;;;;;;;5095389;28;20064;-90
2021/04/03 04:18:02;;;;;;;32.78;4.68;;;;;;;;;;5075250;28;20029;-91
2021/04/03 04:20:29;;;;;;;30.73;4.53;;;;;;;;;;5074810;28;20021;-90
2021/04/03 04:22:54;;;;;;;24.23;4.38;;;;;;;;;;5060454;28;20052;-89
2021/04/03 04:25:20;;;;;;;37.90;5.78;;;;;;;;;;5049450;28;20048;-89
2021/04/03 04:27:45;;;;;;;32.25;5.65;;;;;;;;;;5046759;28;20016;-90
2021/04/03 04:30:12;;;;;;;27.08;4.10;;;;;;;;;;5062819;28;20029;-90
2021/04/03 04:32:40;;;;;;;29.70;6.60;;;;;;;;;;5052966;28;20395;-90
2021/04/03 04:35:06;;;;;;;40.85;4.95;;;;;;;;;;5050656;28;20146;-89
2021/04/03 04:37:32;;;;;;;33.97;4.25;;;;;;;;;;5043942;28;20475;-90
2021/04/03 04:39:57;;;;;;;29.83;5.97;;;;;;;;;;5061900;28;20032;-90
2021/04/03 04:42:23;;;;;;;25.70;4.63;;;;;;;;;;5050431;28;20013;-90
2021/04/03 04:44:48;;;;;;;25.10;4.30;;;;;;;;;;5044765;28;20009;-91
2021/04/03 04:47:13;;;;;;;29.35;5.03;;;;;;;;;;5050339;28;20036;-90
2021/04/03 04:49:39;;;;;;;24.65;4.45;;;;;;;;;;5038838;28;20032;-89
2021/04/03 04:52:04;;;;;;;30.73;5.72;;;;;;;;;;5043554;28;20028;-90
2021/04/03 04:54:29;;;;;;;26.75;5.10;;;;;;;;;;5043231;28;20379;-90
2021/04/03 04:56:55;;;;;;;33.15;4.88;;;;;;;;;;5040118;28;20116;-90
2021/04/03 04:59:20;;;;;;;28.90;4.30;;;;;;;;;;5031740;28;20021;-90
2021/04/03 05:01:45;;;;;;;23.75;4.43;;;;;;;;;;5036580;28;20017;-89
2021/04/03 05:04:11;;;;;;;35.45;5.35;;;;;;;;;;5032237;28;20579;-89
2021/04/03 05:06:36;;;;;;;34.47;5.43;;;;;;;;;;5037613;28;20071;-90
2021/04/03 05:09:02;;;;;;;25.73;4.03;;;;;;;;;;5044393;28;20039;-90
2021/04/03 05:11:27;;;;;;;31.38;4.72;;;;;;;;;;5042459;28;20024;-90
2021/04/03 05:13:52;;;;;;;19.23;4.15;;;;;;;;;;5063431;28;20104;-89
2021/04/03 05:16:17;;;;;;;32.35;4.72;;;;;;;;;;5042365;28;20029;-90
2021/04/03 05:18:43;;;;;;;33.85;5.57;;;;;;;;;;5051149;28;20107;-90
2021/04/03 05:21:09;;;;;;;29.73;4.95;;;;;;;;;;5046667;28;20013;-90
2021/04/03 05:23:34;;;;;;;28.00;5.47;;;;;;;;;;5040981;28;20028;-90
2021/04/03 05:25:59;;;;;;;25.58;4.78;;;;;;;;;;5038809;28;20022;-90
2021/04/03 05:28:25;;;;;;;29.88;4.25;;;;;;;;;;5048664;28;20067;-89
2021/04/03 05:30:50;;;;;;;22.33;4.05;;;;;;;;;;5032517;28;20052;-91
2021/04/03 05:33:16;;;;;;;28.52;4.72;;;;;;;;;;5040435;28;20108;-90
2021/04/03 05:35:41;;;;;;;23.17;4.35;;;;;;;;;;5054431;28;20564;-91
2021/04/03 05:38:06;;;;;;;36.78;6.22;;;;;;;;;;5031375;28;20017;-91
2021/04/03 05:40:32;;;;;;;30.35;4.57;;;;;;;;;;5049392;28;20025;-89
2021/04/03 05:42:58;;;;;;;27.55;4.25;;;;;;;;;;5053245;28;20020;-91
2021/04/03 05:45:27;;;;;;;32.40;4.18;;;;;;;;;;5045382;28;20032;-91
2021/04/03 05:47:53;;;;;;;31.42;4.68;;;;;;;;;;5031088;28;20021;-90
2021/04/03 05:50:19;;;;;;;29.85;6.20;;;;;;;;;;5037270;28;20527;-91
2021/04/03 05:52:44;;;;;;;22.45;4.80;;;;;;;;;;5066129;28;20048;-90
2021/04/03 05:55:09;;;;;;;23.20;4.78;;;;;;;;;;5047209;28;20108;-90
2021/04/03 05:57:36;;;;;;;22.80;4.15;;;;;;;;;;5037713;28;20594;-91
2021/04/03 06:00:02;;;;;;;24.33;4.70;;;;;;;;;;5042679;28;20465;-90
2021/04/03 06:02:34;;;;;;;28.83;4.63;;;;;;;;;;5049960;28;20037;-91
2021/04/03 06:04:59;;;;;;;35.67;4.53;;;;;;;;;;5043863;28;20043;-90
2021/04/03 06:07:24;;;;;;;26.25;4.25;;;;;;;;;;5069731;28;20024;-90
2021/04/03 06:09:50;;;;;;;16.92;4.22;;;;;;;;;;5072396;28;20031;-91
2021/04/03 06:12:35;;;;;;;26.30;3.58;;;;;;;;;;5047618;28;20024;-90
2021/04/03 06:17:36;;;;;;;31.77;5.18;;;;;;;;;;5066331;28;20044;-66
2021/04/03 06:20:01;;;;;;;31.02;4.28;;;;;;;;;;5070884;28;20037;-65
2021/04/03 06:22:39;;;;;;;20.75;3.53;;;;;;;;;;5067311;28;20031;-65
2021/04/03 06:25:04;;;;;;;38.17;5.07;;;;;;;;;;5071652;28;20017;-64
2021/04/03 06:27:30;;;;;;;30.50;4.18;;;;;;;;;;5054828;28;20013;-65
2021/04/03 06:29:56;;;;;;;31.70;3.63;;;;;;;;;;5077131;22;20086;-83
2021/04/03 06:32:26;;;;;;;32.33;4.65;;;;;;;;;;5062970;28;20042;-83
2021/04/03 06:34:55;;;;;;;24.17;4.73;;;;;;;;;;5051657;28;20052;-83
2021/04/03 06:38:09;;;;;;;33.90;4.60;;;;;;;;;;5072069;28;20025;-83
2021/04/03 06:40:28;;;;;;;33.53;5.75;;;;;;;;;;5041121;28;20067;-83
2021/04/03 06:43:02;;;;;;;22.92;5.05;;;;;;;;;;5028190;28;20025;-83
2021/04/03 06:46:04;;;;;;;27.85;5.40;;;;;;;;;;5035374;28;20460;-84
2021/04/03 06:48:27;;;;;;;38.53;5.53;;;;;;;;;;5041710;28;20082;-83
2021/04/03 06:51:00;;;;;;;42.10;6.20;;;;;;;;;;5044784;28;20084;-83
2021/04/03 06:53:26;;;;;;;33.95;5.85;;;;;;;;;;5033236;28;20021;-83
2021/04/03 06:56:14;;;;;;;27.55;5.13;;;;;;;;;;5053353;28;20039;-83
2021/04/03 06:58:52;;;;;;;36.72;6.10;;;;;;;;;;5048952;28;20021;-83
2021/04/03 07:01:26;;;;;;;34.92;7.20;;;;;;;;;;5027544;28;20475;-84
2021/04/03 07:04:01;;;;;;;32.22;7.45;;;;;;;;;;5043282;28;20330;-83
2021/04/03 07:06:32;;;;;;;30.25;6.30;;;;;;;;;;5043574;28;20193;-84
2021/04/03 07:08:58;;;;;;;30.05;6.80;;;;;;;;;;5042458;28;20029;-83
2021/04/03 07:11:24;;;;;;;28.90;7.28;;;;;;;;;;5050679;28;20104;-83
2021/04/03 07:14:20;;;;;;;26.30;7.10;;;;;;;;;;5041459;28;20025;-84
2021/04/03 07:17:04;;;;;;;35.53;6.90;;;;;;;;;;5032615;28;20484;-84
2021/04/03 07:26:42;;;;;;;;;;;;;;;;;;;;;
2021/04/03 07:32:52;;;;;;;28.63;6.55;;;;;;;;;;4912255;28;20470;-84
2021/04/03 07:35:51;;;;;;;39.60;7.32;;;;;;;;;;4960230;28;20031;-84
2021/04/03 07:38:55;;;;;;;35.78;7.22;;;;;;;;;;5020297;28;20029;-83
2021/04/03 07:45:18;;;;;;;26.00;6.38;;;;;;;;;;4972264;28;20080;-84
2021/04/03 07:48:24;;;;;;;23.52;7.00;;;;;;;;;;4925782;29;20031;-84
2021/04/03 07:54:28;;;;;;;26.60;6.32;;;;;;;;;;4945408;28;20450;-85
2021/04/03 07:57:10;;;;;;;30.92;7.30;;;;;;;;;;4967181;28;20484;-84
2021/04/03 08:00:15;;;;;;;27.08;6.43;;;;;;;;;;5001438;28;20068;-85
2021/04/03 08:13:08;;;;;;;;;;;;;;;;;;;;;
2021/04/03 08:19:23;;;;;;;24.30;6.57;;;;;;;;;;4931818;29;20043;-85
2021/04/03 08:21:58;;;;;;;;;;;;;;;;;;;;;
2021/04/03 08:24:56;;;;;;;35.58;7.63;;;;;;;;;;4912146;29;20070;-84
2021/04/03 08:30:22;;;;;;;27.45;6.05;;;;;;;;;;5044346;28;20388;-63
2021/04/03 08:33:04;;;;;;;30.15;5.70;;;;;;;;;;5047048;28;20067;-65
2021/04/03 08:35:30;;;;;;;29.40;6.28;;;;;;;;;;5048261;28;20040;-64
2021/04/03 08:38:08;;;;;;;25.67;7.40;;;;;;;;;;5032816;28;20505;-62
2021/04/03 08:40:33;;;;;;;23.55;7.03;;;;;;;;;;5048619;28;20095;-65
2021/04/03 08:42:58;;;;;;;31.45;6.47;;;;;;;;;;5055182;22;20469;-63
2021/04/03 08:45:23;;;;;;;30.10;6.00;;;;;;;;;;5044960;28;20020;-63
2021/04/03 08:47:51;;;;;;;36.57;6.87;;;;;;;;;;5041689;28;21004;-64
2021/04/03 08:50:17;;;;;;;31.42;7.40;;;;;;;;;;5045235;28;20306;-63
2021/04/03 08:52:43;;;;;;;44.20;7.63;;;;;;;;;;5041191;28;20052;-64
2021/04/03 08:55:09;;;;;;;36.72;7.43;;;;;;;;;;5047547;28;20067;-64
2021/04/03 08:57:34;;;;;;;38.83;8.38;;;;;;;;;;5050972;28;20013;-62
2021/04/03 09:00:01;;;;;;;22.30;6.53;;;;;;;;;;5045492;28;20350;-62
2021/04/03 09:02:27;;;;;;;27.17;6.80;;;;;;;;;;5047074;28;20461;-62
2021/04/03 09:04:52;;;;;;;26.83;6.25;;;;;;;;;;5048441;28;20028;-64
2021/04/03 09:07:30;;;;;;;31.45;6.43;;;;;;;;;;5045537;28;20025;-63
2021/04/03 09:10:23;;;;;;;31.48;6.53;;;;;;;;;;5040043;28;20128;-63
2021/04/03 09:12:51;;;;;;;27.13;6.25;;;;;;;;;;5043978;28;20063;-63
2021/04/03 09:15:25;;;;;;;26.88;6.50;;;;;;;;;;5047688;28;20032;-63
2021/04/03 09:17:52;;;;;;;28.63;6.97;;;;;;;;;;5054334;28;20120;-62
2021/04/03 09:20:20;;;;;;;23.98;6.28;;;;;;;;;;5044759;28;20102;-62
2021/04/03 09:22:46;;;;;;;21.10;5.43;;;;;;;;;;5041976;28;20032;-63
2021/04/03 09:25:12;;;;;;;24.05;6.45;;;;;;;;;;5045516;28;20634;-63
2021/04/03 09:27:38;;;;;;;28.25;6.50;;;;;;;;;;5048230;28;20017;-66
2021/04/03 09:30:06;;;;;;;29.92;7.10;;;;;;;;;;5046993;28;20396;-64
2021/04/03 09:32:45;;;;;;;24.33;6.20;;;;;;;;;;5047883;28;20035;-64
2021/04/03 09:35:11;;;;;;;28.27;5.50;;;;;;;;;;5048172;28;20116;-63
2021/04/03 09:37:37;;;;;;;29.15;5.85;;;;;;;;;;5053757;28;20021;-63
2021/04/03 09:40:03;;;;;;;28.88;6.18;;;;;;;;;;5046674;28;20401;-62
2021/04/03 09:42:29;;;;;;;32.15;6.95;;;;;;;;;;5052043;28;20048;-62
2021/04/03 09:44:56;;;;;;;27.10;6.97;;;;;;;;;;5050693;28;20060;-61
2021/04/03 09:47:22;;;;;;;27.77;7.90;;;;;;;;;;5051309;28;20556;-64
2021/04/03 09:49:47;;;;;;;28.40;6.15;;;;;;;;;;5050171;28;20120;-65
2021/04/03 09:52:16;;;;;;;20.55;5.45;;;;;;;;;;5051486;28;20056;-63
2021/04/03 09:54:42;;;;;;;27.55;6.40;;;;;;;;;;5050169;28;20098;-63
2021/04/03 09:57:08;;;;;;;22.02;5.95;;;;;;;;;;5059521;28;20028;-64
2021/04/03 09:59:33;;;;;;;25.45;6.10;;;;;;;;;;5056216;28;20013;-64
2021/04/03 10:01:59;;;;;;;38.08;7.47;;;;;;;;;;5042722;28;20099;-64
2021/04/03 10:04:24;;;;;;;22.20;6.55;;;;;;;;;;5051190;28;20052;-63
2021/04/03 10:06:50;;;;;;;23.70;5.50;;;;;;;;;;5051382;28;20048;-63
2021/04/03 10:09:15;;;;;;;28.20;6.22;;;;;;;;;;5050720;28;20021;-63
2021/04/03 10:11:40;;;;;;;24.98;7.60;;;;;;;;;;5049830;28;20098;-64
2021/04/03 10:14:06;;;;;;;22.25;7.03;;;;;;;;;;5051389;28;20031;-64
2021/04/03 10:16:31;;;;;;;21.80;6.68;;;;;;;;;;5064015;28;20022;-63
2021/04/03 10:18:56;;;;;;;24.10;5.73;;;;;;;;;;5045137;28;20034;-65
2021/04/03 10:21:22;;;;;;;23.65;6.85;;;;;;;;;;5051740;28;20263;-63
2021/04/03 10:23:47;;;;;;;38.08;7.85;;;;;;;;;;5051172;28;20484;-63
2021/04/03 10:26:13;;;;;;;31.10;7.18;;;;;;;;;;5050901;28;20033;-63
2021/04/03 10:28:38;;;;;;;27.67;6.88;;;;;;;;;;5050832;28;20016;-65
2021/04/03 10:31:03;;;;;;;17.45;6.55;;;;;;;;;;5050944;28;20036;-64
2021/04/03 10:33:29;;;;;;;25.40;8.00;;;;;;;;;;5053453;28;20020;-64
2021/04/03 10:35:54;;;;;;;25.45;5.80;;;;;;;;;;5055930;28;20024;-64
2021/04/03 10:38:20;;;;;;;20.23;5.72;;;;;;;;;;5044853;28;20392;-64
2021/04/03 10:40:45;;;;;;;25.02;6.53;;;;;;;;;;5050479;28;20027;-64
2021/04/03 10:43:10;;;;;;;21.92;6.32;;;;;;;;;;5050347;28;20029;-64
2021/04/03 10:45:35;;;;;;;18.77;7.22;;;;;;;;;;5050597;28;20473;-63
2021/04/03 10:48:00;;;;;;;26.05;6.78;;;;;;;;;;5050094;28;20029;-64
2021/04/03 10:50:26;;;;;;;25.15;6.38;;;;;;;;;;5050162;28;20021;-64
2021/04/03 10:52:51;;;;;;;16.05;5.95;;;;;;;;;;5050270;28;20036;-65
2021/04/03 10:55:16;;;;;;;17.63;5.07;;;;;;;;;;5050938;28;20470;-65
2021/04/03 10:57:42;;;;;;;22.73;7.22;;;;;;;;;;5057126;28;20012;-65
2021/04/03 11:00:08;;;;;;;22.02;7.38;;;;;;;;;;5052515;28;20016;-64
2021/04/03 11:02:33;;;;;;;26.48;6.35;;;;;;;;;;5051811;28;20028;-64
2021/04/03 11:04:58;;;;;;;21.60;8.00;;;;;;;;;;5052413;28;20057;-64
2021/04/03 11:07:23;;;;;;;36.75;8.75;;;;;;;;;;5051865;28;20268;-64
2021/04/03 11:09:49;;;;;;;29.45;10.00;;;;;;;;;;5050228;28;20021;-63
2021/04/03 11:12:15;;;;;;;26.52;8.13;;;;;;;;;;5046989;28;20032;-64
2021/04/03 11:14:41;;;;;;;19.75;7.93;;;;;;;;;;5032636;28;20074;-63
2021/04/03 11:17:06;;;;;;;22.95;7.53;;;;;;;;;;5052196;28;20029;-65
2021/04/03 11:19:31;;;;;;;25.73;8.32;;;;;;;;;;5050950;28;20273;-66
2021/04/03 11:21:56;;;;;;;27.70;9.40;;;;;;;;;;5049535;28;20078;-65
2021/04/03 11:24:21;;;;;;;25.48;8.50;;;;;;;;;;5050944;28;20275;-64
2021/04/03 11:26:47;;;;;;;26.73;9.00;;;;;;;;;;5034007;28;20056;-64
2021/04/03 11:29:12;;;;;;;25.03;9.00;;;;;;;;;;5051355;28;20029;-65
2021/04/03 11:31:37;;;;;;;28.20;9.73;;;;;;;;;;5052106;28;20260;-63
2021/04/03 11:34:02;;;;;;;23.00;8.23;;;;;;;;;;5051435;28;20126;-63
2021/04/03 11:36:28;;;;;;;29.30;10.43;;;;;;;;;;5051411;28;20274;-63
2021/04/03 11:38:53;;;;;;;36.40;11.25;;;;;;;;;;5051460;28;20513;-64
2021/04/03 11:41:18;;;;;;;29.67;11.30;;;;;;;;;;5052053;28;20020;-64
2021/04/03 11:43:44;;;;;;;28.33;13.27;;;;;;;;;;5049736;28;20299;-64
2021/04/03 11:46:09;;;;;;;29.00;10.18;;;;;;;;;;5051812;28;20258;-64
2021/04/03 11:48:35;;;;;;;29.00;10.95;;;;;;;;;;5051231;28;20492;-64
2021/04/03 11:51:00;;;;;;;28.37;12.70;;;;;;;;;;5051749;28;20488;-65
2021/04/03 11:53:25;;;;;;;24.67;10.57;;;;;;;;;;5051556;28;20267;-63
2021/04/03 11:55:51;;;;;;;27.88;9.30;;;;;;;;;;5051825;28;20021;-63
2021/04/03 11:58:16;;;;;;;28.83;10.27;;;;;;;;;;5048823;28;20702;-64
2021/04/03 12:00:41;;;;;;;30.42;11.18;;;;;;;;;;5049187;28;20024;-63
2021/04/03 12:03:07;;;;;;;21.17;9.40;;;;;;;;;;5052721;28;20473;-63
2021/04/03 12:05:32;;;;;;;28.57;9.97;;;;;;;;;;5050113;28;20033;-64
2021/04/03 12:07:58;;;;;;;23.67;7.93;;;;;;;;;;5047290;28;20621;-64
2021/04/03 12:10:23;;;;;;;21.87;6.90;;;;;;;;;;5050486;28;20036;-65
2021/04/03 12:12:48;;;;;;;18.25;6.13;;;;;;;;;;5050830;28;20743;-64
2021/04/03 12:15:14;;;;;;;19.58;6.35;;;;;;;;;;5048137;28;20367;-63
2021/04/03 12:17:39;;;;;;;18.25;5.63;;;;;;;;;;5052244;28;20029;-63
2021/04/03 12:20:05;;;;;;;15.75;6.30;;;;;;;;;;5052812;28;20029;-66
2021/04/03 12:22:30;;;;;;;19.23;6.18;;;;;;;;;;5050333;28;20108;-64
2021/04/03 12:24:56;;;;;;;23.23;7.60;;;;;;;;;;5050483;28;20021;-63
2021/04/03 12:27:21;;;;;;;17.15;6.93;;;;;;;;;;5050607;28;20641;-63
2021/04/03 12:29:46;;;;;;;21.77;6.50;;;;;;;;;;5048468;28;20025;-64
2021/04/03 12:32:11;;;;;;;21.10;6.35;;;;;;;;;;5050855;28;20028;-63
2021/04/03 12:34:36;;;;;;;18.65;6.22;;;;;;;;;;5049868;28;20629;-64
2021/04/03 12:37:02;;;;;;;26.00;7.40;;;;;;;;;;5050471;28;20122;-64
2021/04/03 12:39:27;;;;;;;17.20;5.70;;;;;;;;;;5049932;28;20279;-64
2021/04/03 12:41:52;;;;;;;15.38;6.07;;;;;;;;;;5049655;28;20048;-63
2021/04/03 12:44:18;;;;;;;23.55;6.18;;;;;;;;;;5049575;28;20024;-64
2021/04/03 12:46:43;;;;;;;17.75;5.63;;;;;;;;;;5049642;28;20021;-63
2021/04/03 12:49:08;;;;;;;15.07;6.20;;;;;;;;;;5048595;28;20074;-64
2021/04/03 12:51:34;;;;;;;17.17;5.38;;;;;;;;;;5049593;28;20021;-64
2021/04/03 12:53:59;;;;;;;14.32;5.28;;;;;;;;;;5049521;28;20047;-64
2021/04/03 12:56:24;;;;;;;15.45;5.38;;;;;;;;;;5053164;28;20059;-64
2021/04/03 12:58:49;;;;;;;13.55;5.18;;;;;;;;;;5054580;28;20025;-64
2021/04/03 13:01:15;;;;;;;12.50;4.77;;;;;;;;;;5049339;28;20126;-64
2021/04/03 13:03:40;;;;;;;11.52;4.45;;;;;;;;;;5049650;28;20271;-63
2021/04/03 13:06:06;;;;;;;14.02;5.20;;;;;;;;;;5049310;28;20084;-63
2021/04/03 13:08:31;;;;;;;18.85;6.03;;;;;;;;;;5048696;28;20056;-63
2021/04/03 13:10:56;;;;;;;21.77;8.05;;;;;;;;;;5050237;28;20436;-64
2021/04/03 13:13:21;;;;;;;9.77;4.70;;;;;;;;;;5050032;28;20056;-63
2021/04/03 13:15:47;;;;;;;12.55;4.18;;;;;;;;;;5048529;28;20044;-64
2021/04/03 13:18:12;;;;;;;12.40;4.45;;;;;;;;;;5049675;28;20465;-63
2021/04/03 13:20:37;;;;;;;16.70;4.85;;;;;;;;;;5050383;28;20020;-64
2021/04/03 13:23:04;;;;;;;22.77;5.50;;;;;;;;;;5049620;28;20020;-63
2021/04/03 13:25:30;;;;;;;15.93;5.70;;;;;;;;;;5050435;28;20143;-63
2021/04/03 13:27:55;;;;;;;25.83;6.72;;;;;;;;;;5048882;28;20107;-64
2021/04/03 13:30:20;;;;;;;18.95;6.07;;;;;;;;;;5049809;28;20017;-63
2021/04/03 13:32:46;;;;;;;19.40;5.40;;;;;;;;;;5034637;28;20021;-64
2021/04/03 13:35:11;;;;;;;13.73;4.90;;;;;;;;;;5056164;28;20020;-63
2021/04/03 13:37:37;;;;;;;12.80;4.43;;;;;;;;;;5067784;28;20020;-63
2021/04/03 13:40:02;;;;;;;17.50;5.18;;;;;;;;;;5045467;28;20503;-63
2021/04/03 13:42:27;;;;;;;17.50;4.65;;;;;;;;;;5048782;28;20533;-63
2021/04/03 13:44:53;;;;;;;15.25;4.65;;;;;;;;;;5049981;28;20036;-64
2021/04/03 13:47:18;;;;;;;14.95;5.55;;;;;;;;;;5040816;28;20013;-63
2021/04/03 13:49:43;;;;;;;17.83;5.77;;;;;;;;;;5049445;28;20017;-63
2021/04/03 13:52:08;;;;;;;12.02;5.88;;;;;;;;;;5050033;28;20655;-63
2021/04/03 13:54:34;;;;;;;11.75;4.55;;;;;;;;;;5034416;28;20018;-63
2021/04/03 13:56:59;;;;;;;18.33;6.15;;;;;;;;;;5032554;28;20433;-64
2021/04/03 13:59:24;;;;;;;17.58;5.28;;;;;;;;;;5029662;28;20126;-64
2021/04/03 14:01:49;;;;;;;13.30;4.07;;;;;;;;;;5048803;28;20021;-63
2021/04/03 14:04:15;;;;;;;9.43;2.92;;;;;;;;;;5049987;28;20071;-64
2021/04/03 14:06:40;;;;;;;21.70;6.93;;;;;;;;;;5049487;28;20013;-63
2021/04/03 14:09:05;;;;;;;16.55;7.00;;;;;;;;;;5046661;28;20291;-63
2021/04/03 14:11:31;;;;;;;37.47;7.85;;;;;;;;;;5062243;28;20025;-63
2021/04/03 14:13:56;;;;;;;12.40;4.93;;;;;;;;;;5069767;28;20033;-63
2021/04/03 14:16:21;;;;;;;25.17;5.25;;;;;;;;;;5050096;28;20025;-64
2021/04/03 14:18:46;;;;;;;22.17;6.60;;;;;;;;;;5041585;28;20024;-64
2021/04/03 14:21:11;;;;;;;19.50;4.53;;;;;;;;;;5040780;28;20332;-64
2021/04/03 14:23:37;;;;;;;14.00;5.60;;;;;;;;;;5047055;28;20096;-63
2021/04/03 14:26:03;;;;;;;14.77;5.25;;;;;;;;;;5048137;28;20479;-64
2021/04/03 14:28:28;;;;;;;11.60;3.95;;;;;;;;;;5049916;28;20166;-64
2021/04/03 14:30:53;;;;;;;14.52;4.75;;;;;;;;;;5052777;28;20040;-64
2021/04/03 14:33:18;;;;;;;16.60;5.30;;;;;;;;;;5051689;28;20028;-63
2021/04/03 14:35:43;;;;;;;17.80;5.38;;;;;;;;;;5050761;28;20272;-64
2021/04/03 14:38:09;;;;;;;15.17;5.47;;;;;;;;;;5052069;28;20075;-64
2021/04/03 14:40:34;;;;;;;16.35;4.75;;;;;;;;;;5034728;28;20264;-64
2021/04/03 14:43:02;;;;;;;10.30;4.73;;;;;;;;;;5054429;22;20035;-85
2021/04/03 14:45:27;;;;;;;10.55;3.85;;;;;;;;;;5012859;28;20267;-87
2021/04/03 14:47:53;;;;;;;16.48;4.70;;;;;;;;;;5030255;28;20022;-86
2021/04/03 14:50:18;;;;;;;11.02;4.40;;;;;;;;;;5011989;28;20018;-85
2021/04/03 14:52:43;;;;;;;16.90;5.72;;;;;;;;;;5009537;28;20121;-86
2021/04/03 14:55:09;;;;;;;13.00;4.20;;;;;;;;;;5011489;28;20022;-86
2021/04/03 14:57:37;;;;;;;17.77;5.40;;;;;;;;;;5012850;28;20022;-85
2021/04/03 15:00:03;;;;;;;23.30;6.38;;;;;;;;;;5012268;28;20477;-85
2021/04/03 15:02:28;;;;;;;11.85;4.18;;;;;;;;;;5012073;28;20117;-86
2021/04/03 15:04:53;;;;;;;16.27;4.68;;;;;;;;;;5015573;28;20497;-85
2021/04/03 15:07:19;;;;;;;20.47;4.13;;;;;;;;;;5012444;28;20033;-87
2021/04/03 15:09:44;;;;;;;11.63;4.78;;;;;;;;;;5009667;28;20794;-85
2021/04/03 15:12:10;;;;;;;15.18;4.05;;;;;;;;;;5008903;28;20051;-87
2021/04/03 15:14:35;;;;;;;16.48;4.38;;;;;;;;;;5008696;28;20040;-86